sensor_id;sensor_type;location;lat;lon;timestamp;P1;durP1;ratioP1;P2;durP2;ratioP2
50681;SDS011;36779;52.168;20.878;2022-11-24T00:01:49;41.80;;;11.90;;
50681;SDS011;36779;52.168;20.878;2022-11-24T00:04:19;33.50;;;11.00;;
50681;SDS011;36779;52.168;20.878;2022-11-24T00:06:49;27.60;;;9.20;;
50681;SDS011;36779;52.168;20.878;2022-11-24T00:09:19;34.80;;;10.90;;
50681;SDS011;36779;52.168;20.878;2022-11-24T00:11:48;31.50;;;10.00;;
50681;SDS011;36779;52.168;20.878;2022-11-24T00:14:17;39.50;;;11.40;;
50681;SDS011;36779;52.168;20.878;2022-11-24T00:16:46;19.60;;;6.10;;
50681;SDS011;36779;52.168;20.878;2022-11-24T00:19:15;35.50;;;8.40;;
50681;SDS011;36779;52.168;20.878;2022-11-24T00:21:47;34.90;;;9.10;;
50681;SDS011;36779;52.168;20.878;2022-11-24T00:24:16;43.90;;;12.40;;
50681;SDS011;36779;52.168;20.878;2022-11-24T00:26:48;29.70;;;8.00;;
50681;SDS011;36779;52.168;20.878;2022-11-24T00:29:19;30.10;;;9.20;;
50681;SDS011;36779;52.168;20.878;2022-11-24T00:31:48;36.60;;;11.20;;
50681;SDS011;36779;52.168;20.878;2022-11-24T00:34:21;10.80;;;4.60;;
50681;SDS011;36779;52.168;20.878;2022-11-24T00:36:50;26.50;;;7.60;;
50681;SDS011;36779;52.168;20.878;2022-11-24T00:39:19;35.90;;;8.80;;
50681;SDS011;36779;52.168;20.878;2022-11-24T00:41:55;17.40;;;4.10;;
50681;SDS011;36779;52.168;20.878;2022-11-24T00:44:23;32.40;;;9.50;;
50681;SDS011;36779;52.168;20.878;2022-11-24T00:46:52;28.50;;;8.40;;
50681;SDS011;36779;52.168;20.878;2022-11-24T00:49:21;33.40;;;9.50;;
50681;SDS011;36779;52.168;20.878;2022-11-24T00:51:50;8.40;;;2.70;;
50681;SDS011;36779;52.168;20.878;2022-11-24T00:54:22;28.60;;;8.50;;
50681;SDS011;36779;52.168;20.878;2022-11-24T00:56:50;23.60;;;6.30;;
50681;SDS011;36779;52.168;20.878;2022-11-24T00:59:25;11.60;;;3.80;;
50681;SDS011;36779;52.168;20.878;2022-11-24T01:01:54;24.60;;;8.00;;
50681;SDS011;36779;52.168;20.878;2022-11-24T01:04:23;38.80;;;11.80;;
50681;SDS011;36779;52.168;20.878;2022-11-24T01:06:52;35.90;;;8.30;;
50681;SDS011;36779;52.168;20.878;2022-11-24T01:09:20;39.40;;;10.20;;
50681;SDS011;36779;52.168;20.878;2022-11-24T01:11:53;33.00;;;8.40;;
50681;SDS011;36779;52.168;20.878;2022-11-24T01:14:28;40.50;;;11.60;;
50681;SDS011;36779;52.168;20.878;2022-11-24T01:17:03;32.80;;;9.20;;
50681;SDS011;36779;52.168;20.878;2022-11-24T01:19:32;32.90;;;9.70;;
50681;SDS011;36779;52.168;20.878;2022-11-24T01:22:01;34.50;;;10.20;;
50681;SDS011;36779;52.168;20.878;2022-11-24T01:24:29;32.80;;;10.10;;
50681;SDS011;36779;52.168;20.878;2022-11-24T01:26:58;31.10;;;9.20;;
50681;SDS011;36779;52.168;20.878;2022-11-24T01:29:28;19.20;;;6.30;;
50681;SDS011;36779;52.168;20.878;2022-11-24T01:31:56;17.70;;;5.70;;
50681;SDS011;36779;52.168;20.878;2022-11-24T01:34:25;31.40;;;8.50;;
50681;SDS011;36779;52.168;20.878;2022-11-24T01:36:57;36.80;;;11.40;;
50681;SDS011;36779;52.168;20.878;2022-11-24T01:39:26;43.60;;;11.70;;
50681;SDS011;36779;52.168;20.878;2022-11-24T01:42:00;45.40;;;13.40;;
50681;SDS011;36779;52.168;20.878;2022-11-24T01:44:29;42.60;;;12.20;;
50681;SDS011;36779;52.168;20.878;2022-11-24T01:46:58;39.20;;;11.20;;
50681;SDS011;36779;52.168;20.878;2022-11-24T01:49:32;46.20;;;12.90;;
50681;SDS011;36779;52.168;20.878;2022-11-24T01:52:08;43.00;;;11.80;;
50681;SDS011;36779;52.168;20.878;2022-11-24T01:54:43;29.40;;;7.40;;
50681;SDS011;36779;52.168;20.878;2022-11-24T01:57:16;36.90;;;10.30;;
50681;SDS011;36779;52.168;20.878;2022-11-24T01:59:50;21.60;;;7.10;;
50681;SDS011;36779;52.168;20.878;2022-11-24T02:02:24;27.00;;;8.30;;
50681;SDS011;36779;52.168;20.878;2022-11-24T02:04:59;40.30;;;11.60;;
50681;SDS011;36779;52.168;20.878;2022-11-24T02:07:34;12.10;;;4.70;;
50681;SDS011;36779;52.168;20.878;2022-11-24T02:10:06;31.10;;;9.40;;
50681;SDS011;36779;52.168;20.878;2022-11-24T02:12:43;49.40;;;11.90;;
50681;SDS011;36779;52.168;20.878;2022-11-24T02:15:16;46.00;;;11.90;;
50681;SDS011;36779;52.168;20.878;2022-11-24T02:17:47;49.30;;;13.10;;
50681;SDS011;36779;52.168;20.878;2022-11-24T02:20:16;44.00;;;13.00;;
50681;SDS011;36779;52.168;20.878;2022-11-24T02:22:52;36.20;;;11.70;;
50681;SDS011;36779;52.168;20.878;2022-11-24T02:25:26;46.50;;;13.20;;
50681;SDS011;36779;52.168;20.878;2022-11-24T02:28:12;39.80;;;11.10;;
50681;SDS011;36779;52.168;20.878;2022-11-24T02:30:46;16.40;;;5.80;;
50681;SDS011;36779;52.168;20.878;2022-11-24T02:33:16;43.70;;;12.30;;
50681;SDS011;36779;52.168;20.878;2022-11-24T02:35:47;27.30;;;9.10;;
50681;SDS011;36779;52.168;20.878;2022-11-24T02:38:26;30.60;;;8.90;;
50681;SDS011;36779;52.168;20.878;2022-11-24T02:40:57;28.30;;;8.00;;
50681;SDS011;36779;52.168;20.878;2022-11-24T02:43:29;44.40;;;12.50;;
50681;SDS011;36779;52.168;20.878;2022-11-24T02:46:02;36.90;;;11.50;;
50681;SDS011;36779;52.168;20.878;2022-11-24T02:48:31;47.40;;;11.70;;
50681;SDS011;36779;52.168;20.878;2022-11-24T02:50:59;32.50;;;9.40;;
50681;SDS011;36779;52.168;20.878;2022-11-24T02:53:28;38.50;;;10.50;;
50681;SDS011;36779;52.168;20.878;2022-11-24T02:55:57;32.90;;;9.60;;
50681;SDS011;36779;52.168;20.878;2022-11-24T02:58:25;33.20;;;9.50;;
50681;SDS011;36779;52.168;20.878;2022-11-24T03:00:54;31.50;;;10.20;;
50681;SDS011;36779;52.168;20.878;2022-11-24T03:03:23;25.20;;;8.00;;
50681;SDS011;36779;52.168;20.878;2022-11-24T03:05:52;29.00;;;8.60;;
50681;SDS011;36779;52.168;20.878;2022-11-24T03:08:21;21.20;;;6.90;;
50681;SDS011;36779;52.168;20.878;2022-11-24T03:10:50;17.30;;;5.20;;
50681;SDS011;36779;52.168;20.878;2022-11-24T03:13:19;23.80;;;7.70;;
50681;SDS011;36779;52.168;20.878;2022-11-24T03:15:47;35.60;;;8.70;;
50681;SDS011;36779;52.168;20.878;2022-11-24T03:18:16;27.20;;;7.90;;
50681;SDS011;36779;52.168;20.878;2022-11-24T03:20:45;32.40;;;9.30;;
50681;SDS011;36779;52.168;20.878;2022-11-24T03:23:13;31.20;;;9.40;;
50681;SDS011;36779;52.168;20.878;2022-11-24T03:25:42;29.80;;;8.90;;
50681;SDS011;36779;52.168;20.878;2022-11-24T03:28:13;23.30;;;6.70;;
50681;SDS011;36779;52.168;20.878;2022-11-24T03:30:42;20.20;;;3.90;;
50681;SDS011;36779;52.168;20.878;2022-11-24T03:33:10;18.20;;;6.10;;
50681;SDS011;36779;52.168;20.878;2022-11-24T03:35:40;21.40;;;6.70;;
50681;SDS011;36779;52.168;20.878;2022-11-24T03:38:09;23.90;;;7.40;;
50681;SDS011;36779;52.168;20.878;2022-11-24T03:40:38;10.70;;;3.80;;
50681;SDS011;36779;52.168;20.878;2022-11-24T03:43:06;13.60;;;4.40;;
50681;SDS011;36779;52.168;20.878;2022-11-24T03:45:35;27.60;;;8.00;;
50681;SDS011;36779;52.168;20.878;2022-11-24T03:48:16;31.50;;;9.40;;
50681;SDS011;36779;52.168;20.878;2022-11-24T03:50:52;26.40;;;8.40;;
50681;SDS011;36779;52.168;20.878;2022-11-24T03:53:22;25.70;;;7.80;;
50681;SDS011;36779;52.168;20.878;2022-11-24T03:55:52;25.10;;;7.00;;
50681;SDS011;36779;52.168;20.878;2022-11-24T03:58:21;16.70;;;5.70;;
50681;SDS011;36779;52.168;20.878;2022-11-24T04:00:49;22.10;;;7.60;;
50681;SDS011;36779;52.168;20.878;2022-11-24T04:03:19;16.30;;;4.90;;
50681;SDS011;36779;52.168;20.878;2022-11-24T04:05:49;15.70;;;5.70;;
50681;SDS011;36779;52.168;20.878;2022-11-24T04:08:20;15.80;;;5.40;;
50681;SDS011;36779;52.168;20.878;2022-11-24T04:10:49;15.90;;;5.50;;
50681;SDS011;36779;52.168;20.878;2022-11-24T04:13:20;23.40;;;6.60;;
50681;SDS011;36779;52.168;20.878;2022-11-24T04:15:50;14.00;;;5.20;;
50681;SDS011;36779;52.168;20.878;2022-11-24T04:18:19;24.70;;;7.50;;
50681;SDS011;36779;52.168;20.878;2022-11-24T04:20:49;23.30;;;8.20;;
50681;SDS011;36779;52.168;20.878;2022-11-24T04:23:19;27.00;;;8.10;;
50681;SDS011;36779;52.168;20.878;2022-11-24T04:25:49;22.40;;;7.80;;
50681;SDS011;36779;52.168;20.878;2022-11-24T04:28:18;18.70;;;6.10;;
50681;SDS011;36779;52.168;20.878;2022-11-24T04:30:46;28.60;;;6.70;;
50681;SDS011;36779;52.168;20.878;2022-11-24T04:33:15;8.50;;;3.30;;
50681;SDS011;36779;52.168;20.878;2022-11-24T04:35:43;14.40;;;4.60;;
50681;SDS011;36779;52.168;20.878;2022-11-24T04:38:13;16.70;;;5.20;;
50681;SDS011;36779;52.168;20.878;2022-11-24T04:41:03;18.80;;;6.20;;
50681;SDS011;36779;52.168;20.878;2022-11-24T04:43:32;13.80;;;5.70;;
50681;SDS011;36779;52.168;20.878;2022-11-24T04:46:08;19.20;;;5.70;;
50681;SDS011;36779;52.168;20.878;2022-11-24T04:48:52;21.00;;;6.60;;
50681;SDS011;36779;52.168;20.878;2022-11-24T04:51:21;25.70;;;7.50;;
50681;SDS011;36779;52.168;20.878;2022-11-24T04:53:51;20.60;;;6.30;;
50681;SDS011;36779;52.168;20.878;2022-11-24T04:56:20;19.40;;;5.60;;
50681;SDS011;36779;52.168;20.878;2022-11-24T04:58:51;21.70;;;6.30;;
50681;SDS011;36779;52.168;20.878;2022-11-24T05:01:19;20.10;;;6.50;;
50681;SDS011;36779;52.168;20.878;2022-11-24T05:03:48;23.00;;;6.90;;
50681;SDS011;36779;52.168;20.878;2022-11-24T05:06:19;20.10;;;6.10;;
50681;SDS011;36779;52.168;20.878;2022-11-24T05:08:50;12.80;;;4.90;;
50681;SDS011;36779;52.168;20.878;2022-11-24T05:11:19;17.90;;;5.90;;
50681;SDS011;36779;52.168;20.878;2022-11-24T05:13:52;20.60;;;5.90;;
50681;SDS011;36779;52.168;20.878;2022-11-24T05:16:20;18.30;;;5.50;;
50681;SDS011;36779;52.168;20.878;2022-11-24T05:18:49;11.80;;;3.70;;
50681;SDS011;36779;52.168;20.878;2022-11-24T05:21:18;20.40;;;6.40;;
50681;SDS011;36779;52.168;20.878;2022-11-24T05:23:46;16.40;;;4.70;;
50681;SDS011;36779;52.168;20.878;2022-11-24T05:26:15;25.90;;;7.20;;
50681;SDS011;36779;52.168;20.878;2022-11-24T05:28:44;17.90;;;6.40;;
50681;SDS011;36779;52.168;20.878;2022-11-24T05:31:13;26.10;;;6.40;;
50681;SDS011;36779;52.168;20.878;2022-11-24T05:33:42;15.20;;;5.50;;
50681;SDS011;36779;52.168;20.878;2022-11-24T05:36:11;16.90;;;6.10;;
50681;SDS011;36779;52.168;20.878;2022-11-24T05:39:02;19.40;;;6.10;;
50681;SDS011;36779;52.168;20.878;2022-11-24T05:41:31;16.10;;;5.30;;
50681;SDS011;36779;52.168;20.878;2022-11-24T05:44:05;6.70;;;1.80;;
50681;SDS011;36779;52.168;20.878;2022-11-24T05:46:37;11.30;;;3.70;;
50681;SDS011;36779;52.168;20.878;2022-11-24T05:49:09;16.90;;;5.80;;
50681;SDS011;36779;52.168;20.878;2022-11-24T05:51:42;14.80;;;3.70;;
50681;SDS011;36779;52.168;20.878;2022-11-24T05:54:10;10.30;;;4.30;;
50681;SDS011;36779;52.168;20.878;2022-11-24T05:56:38;18.10;;;6.00;;
50681;SDS011;36779;52.168;20.878;2022-11-24T05:59:07;25.60;;;6.90;;
50681;SDS011;36779;52.168;20.878;2022-11-24T06:01:41;24.40;;;7.20;;
50681;SDS011;36779;52.168;20.878;2022-11-24T06:04:15;26.40;;;8.10;;
50681;SDS011;36779;52.168;20.878;2022-11-24T06:06:45;34.10;;;8.40;;
50681;SDS011;36779;52.168;20.878;2022-11-24T06:09:15;34.20;;;10.10;;
50681;SDS011;36779;52.168;20.878;2022-11-24T06:11:44;26.30;;;8.10;;
50681;SDS011;36779;52.168;20.878;2022-11-24T06:14:15;25.70;;;6.60;;
50681;SDS011;36779;52.168;20.878;2022-11-24T06:16:44;25.70;;;7.70;;
50681;SDS011;36779;52.168;20.878;2022-11-24T06:19:15;14.20;;;4.90;;
50681;SDS011;36779;52.168;20.878;2022-11-24T06:21:44;13.60;;;3.80;;
50681;SDS011;36779;52.168;20.878;2022-11-24T06:24:12;16.80;;;5.40;;
50681;SDS011;36779;52.168;20.878;2022-11-24T06:26:44;15.10;;;5.30;;
50681;SDS011;36779;52.168;20.878;2022-11-24T06:29:13;9.70;;;4.00;;
50681;SDS011;36779;52.168;20.878;2022-11-24T06:31:53;20.70;;;5.60;;
50681;SDS011;36779;52.168;20.878;2022-11-24T06:34:21;20.90;;;6.80;;
50681;SDS011;36779;52.168;20.878;2022-11-24T06:36:50;23.20;;;7.30;;
50681;SDS011;36779;52.168;20.878;2022-11-24T06:39:21;18.60;;;6.30;;
50681;SDS011;36779;52.168;20.878;2022-11-24T06:41:50;28.40;;;6.70;;
50681;SDS011;36779;52.168;20.878;2022-11-24T06:44:19;22.50;;;6.80;;
50681;SDS011;36779;52.168;20.878;2022-11-24T06:46:52;13.50;;;4.70;;
50681;SDS011;36779;52.168;20.878;2022-11-24T06:49:22;21.20;;;6.50;;
50681;SDS011;36779;52.168;20.878;2022-11-24T06:51:53;19.20;;;6.50;;
50681;SDS011;36779;52.168;20.878;2022-11-24T06:54:22;21.00;;;6.70;;
50681;SDS011;36779;52.168;20.878;2022-11-24T06:56:55;12.70;;;4.60;;
50681;SDS011;36779;52.168;20.878;2022-11-24T06:59:23;8.70;;;3.50;;
50681;SDS011;36779;52.168;20.878;2022-11-24T07:01:52;11.70;;;4.40;;
50681;SDS011;36779;52.168;20.878;2022-11-24T07:04:21;18.20;;;5.70;;
50681;SDS011;36779;52.168;20.878;2022-11-24T07:06:51;24.00;;;7.20;;
50681;SDS011;36779;52.168;20.878;2022-11-24T07:09:22;25.10;;;7.50;;
50681;SDS011;36779;52.168;20.878;2022-11-24T07:11:51;26.60;;;7.40;;
50681;SDS011;36779;52.168;20.878;2022-11-24T07:14:23;21.00;;;7.40;;
50681;SDS011;36779;52.168;20.878;2022-11-24T07:17:01;22.10;;;7.30;;
50681;SDS011;36779;52.168;20.878;2022-11-24T07:19:32;19.50;;;6.50;;
50681;SDS011;36779;52.168;20.878;2022-11-24T07:22:03;22.00;;;7.10;;
50681;SDS011;36779;52.168;20.878;2022-11-24T07:24:34;20.60;;;7.40;;
50681;SDS011;36779;52.168;20.878;2022-11-24T07:27:04;15.90;;;5.10;;
50681;SDS011;36779;52.168;20.878;2022-11-24T07:29:32;13.10;;;4.80;;
50681;SDS011;36779;52.168;20.878;2022-11-24T07:32:01;17.10;;;6.10;;
50681;SDS011;36779;52.168;20.878;2022-11-24T07:34:32;21.20;;;7.00;;
50681;SDS011;36779;52.168;20.878;2022-11-24T07:37:01;20.00;;;7.00;;
50681;SDS011;36779;52.168;20.878;2022-11-24T07:39:31;21.10;;;5.90;;
50681;SDS011;36779;52.168;20.878;2022-11-24T07:41:59;23.10;;;6.90;;
50681;SDS011;36779;52.168;20.878;2022-11-24T07:44:29;31.80;;;8.60;;
50681;SDS011;36779;52.168;20.878;2022-11-24T07:46:59;24.40;;;7.70;;
50681;SDS011;36779;52.168;20.878;2022-11-24T07:49:28;28.40;;;9.40;;
50681;SDS011;36779;52.168;20.878;2022-11-24T07:51:56;26.80;;;7.50;;
50681;SDS011;36779;52.168;20.878;2022-11-24T07:54:26;14.30;;;5.00;;
50681;SDS011;36779;52.168;20.878;2022-11-24T07:56:57;20.30;;;6.30;;
50681;SDS011;36779;52.168;20.878;2022-11-24T07:59:26;22.60;;;6.90;;
50681;SDS011;36779;52.168;20.878;2022-11-24T08:01:54;18.30;;;6.60;;
50681;SDS011;36779;52.168;20.878;2022-11-24T08:04:24;16.60;;;5.50;;
50681;SDS011;36779;52.168;20.878;2022-11-24T08:06:52;22.10;;;6.90;;
50681;SDS011;36779;52.168;20.878;2022-11-24T08:09:21;27.30;;;8.80;;
50681;SDS011;36779;52.168;20.878;2022-11-24T08:11:49;32.70;;;9.70;;
50681;SDS011;36779;52.168;20.878;2022-11-24T08:14:19;19.10;;;6.40;;
50681;SDS011;36779;52.168;20.878;2022-11-24T08:16:55;26.90;;;8.70;;
50681;SDS011;36779;52.168;20.878;2022-11-24T08:19:24;13.50;;;4.90;;
50681;SDS011;36779;52.168;20.878;2022-11-24T08:21:54;18.10;;;5.30;;
50681;SDS011;36779;52.168;20.878;2022-11-24T08:24:23;12.50;;;4.20;;
50681;SDS011;36779;52.168;20.878;2022-11-24T08:26:52;21.00;;;5.40;;
50681;SDS011;36779;52.168;20.878;2022-11-24T08:29:26;15.80;;;5.60;;
50681;SDS011;36779;52.168;20.878;2022-11-24T08:31:55;13.30;;;4.50;;
50681;SDS011;36779;52.168;20.878;2022-11-24T08:34:25;26.00;;;7.10;;
50681;SDS011;36779;52.168;20.878;2022-11-24T08:36:56;26.90;;;7.40;;
50681;SDS011;36779;52.168;20.878;2022-11-24T08:39:24;25.60;;;8.00;;
50681;SDS011;36779;52.168;20.878;2022-11-24T08:41:54;23.80;;;7.90;;
50681;SDS011;36779;52.168;20.878;2022-11-24T08:44:23;20.20;;;6.80;;
50681;SDS011;36779;52.168;20.878;2022-11-24T08:46:55;24.30;;;7.20;;
50681;SDS011;36779;52.168;20.878;2022-11-24T08:49:24;16.90;;;6.60;;
50681;SDS011;36779;52.168;20.878;2022-11-24T08:51:52;21.00;;;7.00;;
50681;SDS011;36779;52.168;20.878;2022-11-24T08:54:24;16.10;;;5.90;;
50681;SDS011;36779;52.168;20.878;2022-11-24T08:56:54;11.80;;;4.50;;
50681;SDS011;36779;52.168;20.878;2022-11-24T08:59:23;15.80;;;4.30;;
50681;SDS011;36779;52.168;20.878;2022-11-24T09:01:52;15.30;;;4.30;;
50681;SDS011;36779;52.168;20.878;2022-11-24T09:04:21;21.30;;;6.50;;
50681;SDS011;36779;52.168;20.878;2022-11-24T09:06:50;25.60;;;7.40;;
50681;SDS011;36779;52.168;20.878;2022-11-24T09:09:18;22.80;;;7.40;;
50681;SDS011;36779;52.168;20.878;2022-11-24T09:11:48;24.50;;;8.20;;
50681;SDS011;36779;52.168;20.878;2022-11-24T09:14:17;21.50;;;7.80;;
50681;SDS011;36779;52.168;20.878;2022-11-24T09:16:46;17.90;;;6.30;;
50681;SDS011;36779;52.168;20.878;2022-11-24T09:19:17;19.70;;;7.00;;
50681;SDS011;36779;52.168;20.878;2022-11-24T09:21:48;13.70;;;5.10;;
50681;SDS011;36779;52.168;20.878;2022-11-24T09:24:19;18.80;;;6.30;;
50681;SDS011;36779;52.168;20.878;2022-11-24T09:26:48;15.50;;;5.30;;
50681;SDS011;36779;52.168;20.878;2022-11-24T09:29:17;17.00;;;6.10;;
50681;SDS011;36779;52.168;20.878;2022-11-24T09:31:48;13.60;;;4.40;;
50681;SDS011;36779;52.168;20.878;2022-11-24T09:34:18;22.00;;;7.60;;
50681;SDS011;36779;52.168;20.878;2022-11-24T09:36:51;29.60;;;9.40;;
50681;SDS011;36779;52.168;20.878;2022-11-24T09:39:24;21.40;;;8.10;;
50681;SDS011;36779;52.168;20.878;2022-11-24T09:42:02;17.70;;;6.60;;
50681;SDS011;36779;52.168;20.878;2022-11-24T09:44:43;16.50;;;5.40;;
50681;SDS011;36779;52.168;20.878;2022-11-24T09:47:29;13.30;;;5.40;;
50681;SDS011;36779;52.168;20.878;2022-11-24T09:50:08;15.50;;;6.10;;
50681;SDS011;36779;52.168;20.878;2022-11-24T09:52:42;12.10;;;4.70;;
50681;SDS011;36779;52.168;20.878;2022-11-24T09:55:27;24.10;;;6.30;;
50681;SDS011;36779;52.168;20.878;2022-11-24T09:58:14;20.20;;;6.80;;
50681;SDS011;36779;52.168;20.878;2022-11-24T10:00:50;27.70;;;8.90;;
50681;SDS011;36779;52.168;20.878;2022-11-24T10:03:23;23.00;;;8.40;;
50681;SDS011;36779;52.168;20.878;2022-11-24T10:05:58;27.90;;;8.70;;
50681;SDS011;36779;52.168;20.878;2022-11-24T10:08:40;18.30;;;6.80;;
50681;SDS011;36779;52.168;20.878;2022-11-24T10:11:22;21.40;;;6.90;;
50681;SDS011;36779;52.168;20.878;2022-11-24T10:17:02;15.10;;;5.10;;
50681;SDS011;36779;52.168;20.878;2022-11-24T10:19:41;21.80;;;7.60;;
50681;SDS011;36779;52.168;20.878;2022-11-24T10:22:15;16.80;;;6.00;;
50681;SDS011;36779;52.168;20.878;2022-11-24T10:25:19;17.20;;;7.10;;
50681;SDS011;36779;52.168;20.878;2022-11-24T10:27:53;21.40;;;7.40;;
50681;SDS011;36779;52.168;20.878;2022-11-24T10:30:23;25.40;;;8.90;;
50681;SDS011;36779;52.168;20.878;2022-11-24T10:32:55;26.30;;;8.50;;
50681;SDS011;36779;52.168;20.878;2022-11-24T10:35:28;23.30;;;7.40;;
50681;SDS011;36779;52.168;20.878;2022-11-24T10:38:06;25.40;;;7.10;;
50681;SDS011;36779;52.168;20.878;2022-11-24T10:40:43;24.00;;;9.00;;
50681;SDS011;36779;52.168;20.878;2022-11-24T10:43:25;15.10;;;5.60;;
50681;SDS011;36779;52.168;20.878;2022-11-24T10:45:54;15.70;;;5.90;;
50681;SDS011;36779;52.168;20.878;2022-11-24T10:48:27;11.50;;;4.80;;
50681;SDS011;36779;52.168;20.878;2022-11-24T10:51:22;15.20;;;4.70;;
50681;SDS011;36779;52.168;20.878;2022-11-24T10:54:13;15.30;;;6.00;;
50681;SDS011;36779;52.168;20.878;2022-11-24T10:56:45;29.10;;;9.10;;
50681;SDS011;36779;52.168;20.878;2022-11-24T10:59:19;25.20;;;8.20;;
50681;SDS011;36779;52.168;20.878;2022-11-24T11:02:24;25.50;;;9.10;;
50681;SDS011;36779;52.168;20.878;2022-11-24T11:04:56;23.50;;;8.90;;
50681;SDS011;36779;52.168;20.878;2022-11-24T11:07:46;30.30;;;9.40;;
50681;SDS011;36779;52.168;20.878;2022-11-24T11:10:18;19.00;;;7.90;;
50681;SDS011;36779;52.168;20.878;2022-11-24T11:12:48;21.70;;;7.40;;
50681;SDS011;36779;52.168;20.878;2022-11-24T11:15:21;22.90;;;9.40;;
50681;SDS011;36779;52.168;20.878;2022-11-24T11:17:57;21.50;;;8.10;;
50681;SDS011;36779;52.168;20.878;2022-11-24T11:20:27;17.70;;;7.20;;
50681;SDS011;36779;52.168;20.878;2022-11-24T11:22:59;14.70;;;4.80;;
50681;SDS011;36779;52.168;20.878;2022-11-24T11:25:40;23.70;;;7.60;;
50681;SDS011;36779;52.168;20.878;2022-11-24T11:28:14;26.80;;;9.70;;
50681;SDS011;36779;52.168;20.878;2022-11-24T11:30:59;30.90;;;9.60;;
50681;SDS011;36779;52.168;20.878;2022-11-24T11:33:52;22.20;;;9.10;;
50681;SDS011;36779;52.168;20.878;2022-11-24T11:36:35;32.10;;;9.60;;
50681;SDS011;36779;52.168;20.878;2022-11-24T11:39:08;20.80;;;7.70;;
50681;SDS011;36779;52.168;20.878;2022-11-24T11:41:49;19.40;;;6.20;;
50681;SDS011;36779;52.168;20.878;2022-11-24T11:44:27;23.10;;;7.80;;
50681;SDS011;36779;52.168;20.878;2022-11-24T11:47:07;23.10;;;8.80;;
50681;SDS011;36779;52.168;20.878;2022-11-24T11:49:41;23.40;;;8.00;;
50681;SDS011;36779;52.168;20.878;2022-11-24T11:52:25;18.10;;;7.00;;
50681;SDS011;36779;52.168;20.878;2022-11-24T11:55:13;21.80;;;8.10;;
50681;SDS011;36779;52.168;20.878;2022-11-24T11:57:53;26.00;;;8.80;;
50681;SDS011;36779;52.168;20.878;2022-11-24T12:00:29;27.30;;;9.20;;
50681;SDS011;36779;52.168;20.878;2022-11-24T12:06:10;33.20;;;10.70;;
50681;SDS011;36779;52.168;20.878;2022-11-24T12:08:51;28.00;;;8.50;;
50681;SDS011;36779;52.168;20.878;2022-11-24T12:11:58;25.90;;;9.10;;
50681;SDS011;36779;52.168;20.878;2022-11-24T12:14:40;25.80;;;8.70;;
50681;SDS011;36779;52.168;20.878;2022-11-24T12:17:17;26.10;;;9.40;;
50681;SDS011;36779;52.168;20.878;2022-11-24T12:20:00;29.10;;;9.70;;
50681;SDS011;36779;52.168;20.878;2022-11-24T12:22:41;30.70;;;10.00;;
50681;SDS011;36779;52.168;20.878;2022-11-24T12:25:18;25.80;;;10.10;;
50681;SDS011;36779;52.168;20.878;2022-11-24T12:27:55;19.30;;;7.30;;
50681;SDS011;36779;52.168;20.878;2022-11-24T12:30:38;29.00;;;8.60;;
50681;SDS011;36779;52.168;20.878;2022-11-24T12:36:34;29.60;;;10.60;;
50681;SDS011;36779;52.168;20.878;2022-11-24T12:39:23;31.10;;;11.40;;
50681;SDS011;36779;52.168;20.878;2022-11-24T12:42:00;33.40;;;10.90;;
50681;SDS011;36779;52.168;20.878;2022-11-24T12:48:00;31.30;;;9.70;;
50681;SDS011;36779;52.168;20.878;2022-11-24T12:50:39;32.30;;;11.80;;
50681;SDS011;36779;52.168;20.878;2022-11-24T12:53:12;27.50;;;9.70;;
50681;SDS011;36779;52.168;20.878;2022-11-24T12:55:43;24.80;;;9.50;;
50681;SDS011;36779;52.168;20.878;2022-11-24T12:58:15;28.30;;;9.60;;
50681;SDS011;36779;52.168;20.878;2022-11-24T13:01:01;25.80;;;9.90;;
50681;SDS011;36779;52.168;20.878;2022-11-24T13:03:46;25.00;;;8.30;;
50681;SDS011;36779;52.168;20.878;2022-11-24T13:06:24;36.80;;;11.30;;
50681;SDS011;36779;52.168;20.878;2022-11-24T13:09:09;35.60;;;11.10;;
50681;SDS011;36779;52.168;20.878;2022-11-24T13:11:42;35.20;;;11.00;;
50681;SDS011;36779;52.168;20.878;2022-11-24T13:14:13;35.20;;;12.40;;
50681;SDS011;36779;52.168;20.878;2022-11-24T13:16:49;31.00;;;10.90;;
50681;SDS011;36779;52.168;20.878;2022-11-24T13:19:39;35.30;;;12.10;;
50681;SDS011;36779;52.168;20.878;2022-11-24T13:22:13;27.40;;;9.50;;
50681;SDS011;36779;52.168;20.878;2022-11-24T13:24:43;33.40;;;10.60;;
50681;SDS011;36779;52.168;20.878;2022-11-24T13:27:22;25.30;;;9.30;;
50681;SDS011;36779;52.168;20.878;2022-11-24T13:29:54;24.30;;;9.10;;
50681;SDS011;36779;52.168;20.878;2022-11-24T13:35:13;31.50;;;10.40;;
50681;SDS011;36779;52.168;20.878;2022-11-24T13:37:47;33.90;;;10.80;;
50681;SDS011;36779;52.168;20.878;2022-11-24T13:43:21;32.30;;;11.70;;
50681;SDS011;36779;52.168;20.878;2022-11-24T13:45:53;32.50;;;12.10;;
50681;SDS011;36779;52.168;20.878;2022-11-24T13:51:26;37.30;;;13.00;;
50681;SDS011;36779;52.168;20.878;2022-11-24T13:53:55;45.40;;;13.60;;
50681;SDS011;36779;52.168;20.878;2022-11-24T13:56:28;37.10;;;12.50;;
50681;SDS011;36779;52.168;20.878;2022-11-24T13:58:58;36.60;;;12.70;;
50681;SDS011;36779;52.168;20.878;2022-11-24T14:01:29;34.80;;;13.10;;
50681;SDS011;36779;52.168;20.878;2022-11-24T14:04:10;32.50;;;11.30;;
50681;SDS011;36779;52.168;20.878;2022-11-24T14:07:02;19.50;;;7.60;;
50681;SDS011;36779;52.168;20.878;2022-11-24T14:09:38;26.60;;;10.00;;
50681;SDS011;36779;52.168;20.878;2022-11-24T14:12:12;37.90;;;12.50;;
50681;SDS011;36779;52.168;20.878;2022-11-24T14:14:51;34.70;;;11.60;;
50681;SDS011;36779;52.168;20.878;2022-11-24T14:17:25;34.30;;;11.20;;
50681;SDS011;36779;52.168;20.878;2022-11-24T14:19:54;36.90;;;11.20;;
50681;SDS011;36779;52.168;20.878;2022-11-24T14:22:25;39.20;;;12.30;;
50681;SDS011;36779;52.168;20.878;2022-11-24T14:25:17;40.10;;;12.60;;
50681;SDS011;36779;52.168;20.878;2022-11-24T14:27:53;41.10;;;12.10;;
50681;SDS011;36779;52.168;20.878;2022-11-24T14:30:22;35.90;;;11.60;;
50681;SDS011;36779;52.168;20.878;2022-11-24T14:32:54;35.00;;;11.60;;
50681;SDS011;36779;52.168;20.878;2022-11-24T14:35:25;26.40;;;9.10;;
50681;SDS011;36779;52.168;20.878;2022-11-24T14:37:56;29.90;;;10.50;;
50681;SDS011;36779;52.168;20.878;2022-11-24T14:40:37;22.80;;;8.60;;
50681;SDS011;36779;52.168;20.878;2022-11-24T14:43:14;16.50;;;7.00;;
50681;SDS011;36779;52.168;20.878;2022-11-24T14:45:50;23.40;;;7.60;;
50681;SDS011;36779;52.168;20.878;2022-11-24T14:48:24;20.00;;;7.30;;
50681;SDS011;36779;52.168;20.878;2022-11-24T14:51:03;34.10;;;10.00;;
50681;SDS011;36779;52.168;20.878;2022-11-24T14:53:40;35.90;;;11.80;;
50681;SDS011;36779;52.168;20.878;2022-11-24T14:56:22;40.40;;;12.00;;
50681;SDS011;36779;52.168;20.878;2022-11-24T14:58:53;42.00;;;13.30;;
50681;SDS011;36779;52.168;20.878;2022-11-24T15:01:28;44.60;;;12.60;;
50681;SDS011;36779;52.168;20.878;2022-11-24T15:04:14;31.90;;;10.60;;
50681;SDS011;36779;52.168;20.878;2022-11-24T15:07:13;36.70;;;11.00;;
50681;SDS011;36779;52.168;20.878;2022-11-24T15:09:49;31.00;;;10.40;;
50681;SDS011;36779;52.168;20.878;2022-11-24T15:12:22;29.10;;;8.80;;
50681;SDS011;36779;52.168;20.878;2022-11-24T15:14:55;27.10;;;8.40;;